EST,Max TemperatureF,Mean TemperatureF,Min TemperatureF,Max Dew PointF,MeanDew PointF,Min DewpointF,Max Humidity, Mean Humidity, Min Humidity, Max Sea Level PressureIn, Mean Sea Level PressureIn, Min Sea Level PressureIn, Max VisibilityMiles, Mean VisibilityMiles, Min VisibilityMiles, Max Wind SpeedMPH, Mean Wind SpeedMPH, Max Gust SpeedMPH,PrecipitationIn, CloudCover, Events, WindDirDegrees
2013-2-1,30,26,21,12,7,1,60,45,33,30.21,29.93,29.74,10,10,10,26,14,37,0.00,3,,287
2013-2-2,28,22,17,18,10,1,86,61,33,30.30,30.16,30.04,10,7,1,16,9,23,0.01,4,Snow,257
2013-2-3,28,22,17,19,15,13,93,71,53,30.04,29.88,29.80,10,8,2,10,3,,0.01,3,Snow,321
2013-2-4,28,24,21,18,8,4,75,49,36,29.97,29.91,29.80,10,10,6,17,10,32,0.00,3,,282
2013-2-5,28,26,24,23,20,11,86,77,53,29.99,29.93,29.88,10,5,2,6,3,,0.00,8,Snow,59
2013-2-6,37,32,25,27,19,6,93,66,39,30.35,30.09,29.92,10,7,2,17,6,26,0.00,4,Snow,301
2013-2-7,30,24,19,21,8,3,69,49,36,30.52,30.44,30.36,10,10,10,8,3,,0.00,3,,63
2013-2-8,32,29,25,29,26,21,93,85,69,30.32,29.93,29.60,10,3,0,20,13,31,0.07,8,Fog-Snow,47
2013-2-9,30,24,18,21,13,1,88,63,35,30.32,29.97,29.74,10,7,0,30,20,39,0.00,3,Fog-Snow,326
2013-2-10,34,24,14,18,5,-1,72,49,28,30.48,30.39,30.33,10,10,10,18,9,,0.00,0,,312
2013-2-11,42,34,25,40,34,19,100,92,75,30.32,29.93,29.68,10,3,0,9,2,,0.33,6,Fog-Rain,108
2013-2-12,42,38,34,34,26,21,96,62,47,29.95,29.84,29.71,10,10,4,20,7,26,0.00,5,,285
2013-2-13,41,33,25,30,23,20,89,66,43,29.94,29.81,29.68,10,8,1,13,4,,0.01,4,Snow,311
2013-2-14,43,35,27,34,26,22,100,71,45,30.00,29.90,29.71,10,9,2,12,6,,0.00,2,Snow,292
2013-2-15,51,42,32,36,31,27,99,71,39,30.01,29.96,29.92,10,8,7,14,7,24,0.00,3,Rain,226
2013-2-16,37,32,28,31,23,12,92,68,49,29.96,29.88,29.73,10,9,3,15,12,23,0.03,7,Rain-Snow,345
2013-2-17,28,22,16,10,4,-1,52,42,32,29.95,29.74,29.63,10,10,10,37,21,51,0.00,3,,313
2013-2-18,32,24,15,11,5,1,55,45,32,30.22,30.15,29.98,10,10,10,32,19,45,0.00,0,,289
2013-2-19,44,34,24,40,28,10,97,73,42,30.19,29.90,29.66,10,7,1,17,4,28,0.24,4,Rain,191
2013-2-20,35,30,23,19,12,7,60,49,40,29.96,29.81,29.69,10,10,9,22,16,40,0.00,4,,287
2013-2-21,32,28,23,12,11,8,63,52,42,30.28,30.05,29.95,10,10,10,25,20,39,0.00,2,Snow,307
2013-2-22,36,28,21,27,20,12,75,66,50,30.41,30.33,30.26,10,10,6,23,11,31,0.00,4,,70
2013-2-23,39,36,33,37,32,27,93,88,75,30.28,30.06,29.81,10,5,1,14,6,24,0.13,8,,84
2013-2-24,46,40,33,36,30,21,93,74,46,29.95,29.81,29.74,10,8,2,22,11,30,0.00,7,Snow,323
2013-2-25,44,36,28,26,23,20,69,57,43,30.23,30.12,29.96,10,10,10,13,8,20,0.00,5,,332
2013-2-26,39,34,30,32,28,24,86,72,60,30.30,30.20,29.94,10,9,3,20,6,29,0.16,6,Rain,86
2013-2-27,46,42,37,42,38,32,97,86,77,29.92,29.62,29.48,10,4,0,29,15,46,0.74,7,Fog-Rain,73
2013-2-28,48,42,37,36,32,28,93,71,52,29.62,29.58,29.54,10,9,6,13,4,,0.00,7,Rain,299